Latest  Newer  Older  Last 2 hours slideshow  Last 24 hours slideshow  Refresh every 5 minutes 
Current image  Latest image  Rain/snow radar  Cloud coverage sat images 

All time is UTC (add 2 hours to UTC in wintertime, 3 hours to UTC in DST for Latvia local time)

2021/10/26 01:20 EVRA 260120Z 18007KT CAVOK 02/01 Q1016 R18/090095 NOSIG
2021/10/26 01:20 EVLA 260120Z AUTO 23008KT 9999 FEW018/// BKN023/// 09/07 Q1015
2021/10/26 01:20 EVVA 260120Z AUTO 25010KT 9999 OVC026 10/07 Q1014
2021/10/26 01:20 EYKA 260120Z 17007KT CAVOK 04/M00 Q1019
2021/10/26 01:20 EYPA 260120Z 14004KT 9999 FEW020 BKN210 06/04 Q1016
2021/10/26 01:20 EYSA 260120Z AUTO 20007KT 9999 BKN240/// 04/02 Q1017 NOSIG
2021/10/26 01:20 EYVI 260120Z 18008KT CAVOK 01/M01 Q1020 NOSIG
2021/10/25 15:20 EEKA 251520Z 21008KT 170V250 9999 OVC023 10/06 Q1014
2021/10/26 01:20 EEKE 260120Z AUTO 26005KT 210V290 9999NDV OVC023 09/05 Q1013

2021/10/26 01:20 EETN 260120Z 23008KT 9999 OVC025 08/06 Q1011
2021/10/26 01:20 EETU 260120Z AUTO 21011KT 9999 BKN027/// 04/02 Q1014
   RIGA AIRPORT     EVRA               56 55N  023 58E   10   X     T          6 LV
   LIEPAJA INTL     EVLA        26406  56 31N  021 06E    4   X                8 LV
   VENTPILS         EVVA               57 21N  021 33E    6   X                8 LV
   KAUNAS           EYKA               54 54N  023 55E   77   X     T          6 LT
   PALANGA INTL     EYPA               55 55N  021 03E   10   X                6 LT
   SIAULIAI INTL    EYSA               55 54N  023 24E  135   X     T          6 LT
   VILNIUS INTL     EYVI        26730  54 38N  025 17E  197   X     T          6 LT
   KARDLA           EEKA        26116  58 59N  022 50E    4   X                8 EE
   KURESSAARE       EEKE               58 14N  022 31E    4   X                8 EE
   PARNU            EEPU               58 25N  024 28E   14   X                8 EE
   TALLINN          EETN        26038  59 24N  024 49E   40   X     T          8 EE
   TARTU            EETU               58 19N  026 41E   67   X                8 EE